createdAt,value
2018-05-02T00:01:47.140Z,16.13
2018-05-02T00:04:14.742Z,16.13
2018-05-02T00:06:42.304Z,16.12
2018-05-02T00:09:09.845Z,16.06
2018-05-02T00:11:37.422Z,16.01
2018-05-02T00:14:04.987Z,15.93
2018-05-02T00:16:32.562Z,15.88
2018-05-02T00:19:00.429Z,15.80
2018-05-02T00:21:27.974Z,15.72
2018-05-02T00:23:55.518Z,15.66
2018-05-02T00:26:23.252Z,15.59
2018-05-02T00:35:32.908Z,15.34
2018-05-02T00:38:00.465Z,15.27
2018-05-02T00:40:28.004Z,15.23
2018-05-02T00:42:55.577Z,15.19
2018-05-02T00:45:23.140Z,15.07
2018-05-02T00:47:50.702Z,15.03
2018-05-02T00:50:18.403Z,15.00
2018-05-02T00:52:45.948Z,14.93
2018-05-02T00:55:13.502Z,14.85
2018-05-02T00:57:41.265Z,14.81
2018-05-02T01:00:08.848Z,14.79
2018-05-02T01:02:36.423Z,14.77
2018-05-02T01:05:04.002Z,14.73
2018-05-02T01:07:31.533Z,14.68
2018-05-02T01:09:59.207Z,14.68
2018-05-02T01:12:26.752Z,14.71
2018-05-02T01:14:54.291Z,14.72
2018-05-02T01:17:21.872Z,14.71
2018-05-02T01:19:49.409Z,14.64
2018-05-02T01:22:16.963Z,14.61
2018-05-02T01:24:44.548Z,14.57
2018-05-02T01:27:12.109Z,14.57
2018-05-02T01:29:39.671Z,14.56
2018-05-02T01:32:07.360Z,14.52
2018-05-02T01:34:34.908Z,14.48
2018-05-02T01:37:02.466Z,14.42
2018-05-02T01:39:30.179Z,14.38
2018-05-02T01:41:57.723Z,14.33
2018-05-02T01:44:25.266Z,14.30
2018-05-02T01:46:52.867Z,14.28
2018-05-02T01:49:23.928Z,14.23
2018-05-02T01:51:51.508Z,14.14
2018-05-02T01:54:19.242Z,14.12
2018-05-02T01:56:46.801Z,14.09
2018-05-02T01:59:14.362Z,14.06
2018-05-02T02:01:42.236Z,14.01
2018-05-02T02:04:09.780Z,13.97
2018-05-02T02:06:37.384Z,13.94
2018-05-02T02:09:05.830Z,13.88
2018-05-02T02:11:33.379Z,13.84
2018-05-02T02:14:00.935Z,13.79
2018-05-02T02:16:28.521Z,13.78
2018-05-02T02:18:56.055Z,13.79
2018-05-02T02:21:23.612Z,13.74
2018-05-02T02:23:51.193Z,13.67
2018-05-02T02:26:18.730Z,13.66
2018-05-02T02:28:46.282Z,13.64
2018-05-02T02:31:13.898Z,13.61
2018-05-02T02:33:41.446Z,13.54
2018-05-02T02:36:08.989Z,13.53
2018-05-02T02:38:36.552Z,13.48
2018-05-02T02:41:04.100Z,13.47
2018-05-02T02:43:31.649Z,13.43
2018-05-02T02:45:59.239Z,13.40
2018-05-02T02:48:26.790Z,13.39
2018-05-02T02:50:54.345Z,13.37
2018-05-02T02:53:22.229Z,13.35
2018-05-02T02:55:49.776Z,13.33
2018-05-02T02:58:17.320Z,13.29
2018-05-02T03:00:44.916Z,13.27
2018-05-02T03:03:12.456Z,13.26
2018-05-02T03:05:40.025Z,13.25
2018-05-02T03:08:07.693Z,13.23
2018-05-02T03:10:35.229Z,13.22
2018-05-02T03:13:02.772Z,13.20
2018-05-02T03:15:30.496Z,13.19
2018-05-02T03:17:58.043Z,13.20
2018-05-02T03:20:25.590Z,13.24
2018-05-02T03:22:53.185Z,13.30
2018-05-02T03:25:20.748Z,13.37
2018-05-02T03:27:48.295Z,13.49
2018-05-02T03:30:16.159Z,13.83
2018-05-02T03:32:43.711Z,14.41
2018-05-02T03:35:11.247Z,15.09
2018-05-02T03:37:38.806Z,15.84
2018-05-02T03:40:06.374Z,16.60
2018-05-02T03:42:33.922Z,17.39
2018-05-02T03:45:01.597Z,18.21
2018-05-02T03:47:29.136Z,19.06
2018-05-02T03:49:56.711Z,19.94
2018-05-02T03:52:24.329Z,20.79
2018-05-02T03:54:51.882Z,21.71
2018-05-02T03:57:19.447Z,22.72
2018-05-02T03:59:58.857Z,23.75
2018-05-02T04:02:38.035Z,24.81
2018-05-02T04:05:17.405Z,25.74
2018-05-02T04:07:44.972Z,26.76
2018-05-02T04:10:12.691Z,27.54
2018-05-02T04:12:40.268Z,28.53
2018-05-02T04:15:07.807Z,29.32
2018-05-02T04:17:35.521Z,29.86
2018-05-02T04:20:03.081Z,30.66
2018-05-02T04:22:30.632Z,30.50
2018-05-02T04:24:58.376Z,30.72
2018-05-02T04:27:25.909Z,31.80
2018-05-02T04:29:53.441Z,31.51
2018-05-02T04:32:21.004Z,32.21
2018-05-02T04:34:48.541Z,32.50
2018-05-02T04:37:16.074Z,33.42
2018-05-02T04:39:43.677Z,32.69
2018-05-02T04:42:11.225Z,33.35
2018-05-02T04:44:38.768Z,34.38
2018-05-02T04:47:06.356Z,34.75
2018-05-02T04:49:33.903Z,35.16
2018-05-02T04:52:01.443Z,35.51
2018-05-02T04:54:29.336Z,35.57
2018-05-02T04:56:56.895Z,36.01
2018-05-02T04:59:24.498Z,36.90
2018-05-02T05:01:52.081Z,36.97
2018-05-02T05:04:19.627Z,36.73
2018-05-02T05:06:47.159Z,37.76
2018-05-02T05:09:15.057Z,37.19
2018-05-02T05:11:43.376Z,37.29
2018-05-02T05:14:10.923Z,37.30
2018-05-02T05:16:38.592Z,37.18
2018-05-02T05:19:06.129Z,37.04
2018-05-02T05:21:33.674Z,36.90
2018-05-02T05:24:01.431Z,36.35
2018-05-02T05:26:29.024Z,36.45
2018-05-02T05:28:56.569Z,35.25
2018-05-02T05:31:24.149Z,34.78
2018-05-02T05:33:51.703Z,34.48
2018-05-02T05:36:19.239Z,33.64
2018-05-02T05:38:46.970Z,32.57
2018-05-02T05:41:14.529Z,32.02
2018-05-02T05:43:42.179Z,31.58
2018-05-02T05:46:09.693Z,31.25
2018-05-02T05:48:37.230Z,30.81
2018-05-02T05:51:04.810Z,30.84
2018-05-02T05:53:32.384Z,30.20
2018-05-02T05:55:59.927Z,30.09
2018-05-02T05:58:27.579Z,30.14
2018-05-02T06:00:55.174Z,30.00
2018-05-02T06:03:22.711Z,29.90
2018-05-02T06:05:50.285Z,29.64
2018-05-02T06:08:19.054Z,29.18
2018-05-02T06:10:46.583Z,29.37
2018-05-02T06:13:14.136Z,29.26
2018-05-02T06:15:41.809Z,29.24
2018-05-02T06:18:09.353Z,29.28
2018-05-02T06:20:36.944Z,29.07
2018-05-02T06:23:04.522Z,29.24
2018-05-02T06:25:32.986Z,29.17
2018-05-02T06:28:00.541Z,28.74
2018-05-02T06:30:28.509Z,28.85
2018-05-02T06:32:56.060Z,28.64
2018-05-02T06:35:23.633Z,28.65
2018-05-02T06:37:51.445Z,28.44
2018-05-02T06:40:18.993Z,28.21
2018-05-02T06:42:46.551Z,27.44
2018-05-02T06:45:14.153Z,27.56
2018-05-02T06:47:41.712Z,27.72
2018-05-02T06:50:09.255Z,27.98
2018-05-02T06:52:36.891Z,28.36
2018-05-02T06:55:04.431Z,28.32
2018-05-02T06:57:32.007Z,28.48
2018-05-02T06:59:59.612Z,28.64
2018-05-02T07:02:27.176Z,28.33
2018-05-02T07:04:54.748Z,28.06
2018-05-02T07:07:22.305Z,27.79
2018-05-02T07:09:49.865Z,27.66
2018-05-02T07:12:17.460Z,27.59
2018-05-02T07:14:45.024Z,27.12
2018-05-02T07:17:12.574Z,27.06
2018-05-02T07:19:40.167Z,27.10
2018-05-02T07:22:07.722Z,27.29
2018-05-02T07:24:35.283Z,26.92
2018-05-02T07:27:03.135Z,26.90
2018-05-02T07:29:30.675Z,26.94
2018-05-02T07:31:58.246Z,26.29
2018-05-02T07:34:25.815Z,25.79
2018-05-02T07:36:53.368Z,26.03
2018-05-02T07:39:20.931Z,25.85
2018-05-02T07:41:48.512Z,26.25
2018-05-02T07:44:16.060Z,26.51
2018-05-02T07:46:43.611Z,26.77
2018-05-02T07:49:11.341Z,26.87
2018-05-02T09:00:18.204Z,24.84
2018-05-02T09:02:45.749Z,24.77
2018-05-02T09:05:13.292Z,24.82
2018-05-02T09:07:40.844Z,25.02
2018-05-02T09:10:08.396Z,25.26
2018-05-02T09:12:35.991Z,25.66
2018-05-02T09:15:03.575Z,25.99
2018-05-02T09:17:31.120Z,26.21
2018-05-02T09:19:58.696Z,26.26
2018-05-02T09:22:26.272Z,26.25
2018-05-02T09:24:53.826Z,25.97
2018-05-02T09:27:21.555Z,26.02
2018-05-02T09:29:49.086Z,26.20
2018-05-02T09:32:16.623Z,25.93
2018-05-02T09:34:44.199Z,25.88
2018-05-02T09:37:11.736Z,26.08
2018-05-02T09:39:39.286Z,26.02
2018-05-02T09:54:51.480Z,25.87
2018-05-02T09:57:19.030Z,25.83
2018-05-02T09:59:46.592Z,26.05
2018-05-02T10:02:14.169Z,26.18
2018-05-02T10:04:41.715Z,26.26
2018-05-02T10:07:09.243Z,26.56
2018-05-02T10:09:37.107Z,26.93
2018-05-02T10:12:04.687Z,27.02
2018-05-02T10:14:32.227Z,26.87
2018-05-02T10:16:59.816Z,26.96
2018-05-02T10:19:27.357Z,26.90
2018-05-02T10:21:54.895Z,26.78
2018-05-02T10:24:22.807Z,27.02
2018-05-02T10:26:50.372Z,26.99
2018-05-02T10:29:17.933Z,26.81
2018-05-02T10:31:45.705Z,26.61
2018-05-02T10:34:13.259Z,26.78
2018-05-02T10:36:40.817Z,26.85
2018-05-02T10:39:08.567Z,27.06
2018-05-02T10:41:36.118Z,27.27
2018-05-02T10:44:03.678Z,27.46
2018-05-02T10:46:31.407Z,27.17
2018-05-02T10:48:58.962Z,27.21
2018-05-02T10:51:26.526Z,27.26
2018-05-02T10:53:54.204Z,27.60
2018-05-02T10:56:21.753Z,27.83
2018-05-02T10:58:49.316Z,27.94
2018-05-02T11:01:16.952Z,27.92
2018-05-02T11:03:44.506Z,27.89
2018-05-02T11:06:12.083Z,27.55
2018-05-02T11:08:39.693Z,27.60
2018-05-02T11:11:07.235Z,27.80
2018-05-02T11:13:34.809Z,27.79
2018-05-02T11:16:02.572Z,27.44
2018-05-02T11:18:30.116Z,27.00
2018-05-02T11:20:57.679Z,26.96
2018-05-02T11:23:25.252Z,26.90
2018-05-02T11:25:52.798Z,27.12
2018-05-02T11:28:20.383Z,27.27
2018-05-02T11:30:47.942Z,27.43
2018-05-02T11:33:15.499Z,27.58
2018-05-02T11:35:43.056Z,27.62
2018-05-02T11:38:10.631Z,27.80
2018-05-02T11:40:38.199Z,28.12
2018-05-02T11:43:05.750Z,28.23
2018-05-02T11:45:33.355Z,27.94
2018-05-02T11:48:00.911Z,27.88
2018-05-02T11:50:28.449Z,28.07
2018-05-02T11:52:56.027Z,27.77
2018-05-02T11:55:23.590Z,27.72
2018-05-02T11:57:51.223Z,27.55
2018-05-02T12:00:18.898Z,27.54
2018-05-02T12:02:46.460Z,27.62
2018-05-02T12:05:14.032Z,27.59
2018-05-02T12:07:41.593Z,27.64
2018-05-02T12:10:09.142Z,27.48
2018-05-02T12:12:36.742Z,27.42
2018-05-02T12:15:04.350Z,27.62
2018-05-02T12:17:31.903Z,27.64
2018-05-02T12:19:59.506Z,27.67
2018-05-02T12:22:27.056Z,27.99
2018-05-02T12:24:54.591Z,28.15
2018-05-02T12:27:22.167Z,27.99
2018-05-02T12:29:49.754Z,27.64
2018-05-02T12:32:17.352Z,27.65
2018-05-02T12:34:45.046Z,27.74
2018-05-02T12:37:12.586Z,27.90
2018-05-02T12:39:40.147Z,27.77
2018-05-02T12:42:07.875Z,27.76
2018-05-02T12:44:35.425Z,27.91
2018-05-02T12:47:03.015Z,27.64
2018-05-02T12:49:30.738Z,27.33
2018-05-02T12:51:58.295Z,27.55
2018-05-02T12:54:25.842Z,27.71
2018-05-02T12:56:53.413Z,27.64
2018-05-02T12:59:20.972Z,27.60
2018-05-02T13:01:48.519Z,27.78
2018-05-02T13:04:16.103Z,27.78
2018-05-02T13:06:43.653Z,27.58
2018-05-02T13:09:11.191Z,27.56
2018-05-02T13:11:38.919Z,27.52
2018-05-02T13:14:06.466Z,27.39
2018-05-02T13:16:34.004Z,27.53
2018-05-02T13:19:01.560Z,27.47
2018-05-02T13:21:29.100Z,27.65
2018-05-02T13:23:56.661Z,27.41
2018-05-02T13:26:24.254Z,27.39
2018-05-02T13:28:51.806Z,27.29
2018-05-02T13:31:19.345Z,27.21
2018-05-02T13:33:47.110Z,27.02
2018-05-02T13:36:14.656Z,26.93
2018-05-02T13:38:42.208Z,27.06
2018-05-02T13:41:10.084Z,27.23
2018-05-02T13:43:37.620Z,27.37
2018-05-02T13:46:05.161Z,27.31
2018-05-02T13:48:32.753Z,27.17
2018-05-02T13:51:00.310Z,26.74
2018-05-02T13:53:27.850Z,26.41
2018-05-02T13:55:55.529Z,26.04
2018-05-02T13:58:23.103Z,25.75
2018-05-02T14:00:50.679Z,25.37
2018-05-02T14:03:18.434Z,25.08
2018-05-02T14:05:45.971Z,25.05
2018-05-02T14:08:13.534Z,24.96
2018-05-02T14:10:41.152Z,25.01
2018-05-02T14:13:08.707Z,24.91
2018-05-02T14:15:36.239Z,24.70
2018-05-02T14:18:03.960Z,24.62
2018-05-02T14:20:31.637Z,24.55
2018-05-02T14:22:59.188Z,24.48
2018-05-02T14:25:27.096Z,24.39
2018-05-02T14:27:54.641Z,24.41
2018-05-02T14:30:22.194Z,24.31
2018-05-02T14:32:49.821Z,24.23
2018-05-02T14:35:17.359Z,24.18
2018-05-02T14:37:44.911Z,24.26
2018-05-02T14:40:12.475Z,24.32
2018-05-02T14:42:40.016Z,24.19
2018-05-02T14:45:07.547Z,24.23
2018-05-02T14:47:35.499Z,24.20
2018-05-02T14:50:03.082Z,24.14
2018-05-02T14:52:30.627Z,24.20
2018-05-02T14:54:58.236Z,24.10
2018-05-02T14:57:25.784Z,23.97
2018-05-02T14:59:53.346Z,24.09
2018-05-02T15:02:21.001Z,24.00
2018-05-02T15:04:48.540Z,23.95
2018-05-02T15:07:16.083Z,23.97
2018-05-02T15:09:43.682Z,24.06
2018-05-02T15:12:11.237Z,24.03
2018-05-02T15:14:38.777Z,24.00
2018-05-02T15:17:06.447Z,24.08
2018-05-02T15:19:33.991Z,24.14
2018-05-02T15:22:01.564Z,24.09
2018-05-02T15:24:29.137Z,24.05
2018-05-02T15:26:56.724Z,24.00
2018-05-02T15:29:24.274Z,23.97
2018-05-02T15:31:52.051Z,23.95
2018-05-02T15:34:19.618Z,23.82
2018-05-02T15:36:47.186Z,23.81
2018-05-02T15:39:14.798Z,23.70
2018-05-02T15:41:42.348Z,23.69
2018-05-02T15:44:09.913Z,23.55
2018-05-02T15:46:37.580Z,23.55
2018-05-02T15:49:05.157Z,23.45
2018-05-02T15:51:32.695Z,23.33
2018-05-02T15:54:00.380Z,23.35
2018-05-02T15:56:27.941Z,23.35
2018-05-02T15:58:55.486Z,23.31
2018-05-02T16:01:23.645Z,23.27
2018-05-02T16:03:51.182Z,23.23
2018-05-02T16:06:18.742Z,23.06
2018-05-02T16:08:46.324Z,22.95
2018-05-02T16:11:13.875Z,22.92
2018-05-02T16:13:41.439Z,22.86
2018-05-02T16:16:09.137Z,22.82
2018-05-02T16:18:36.684Z,22.80
2018-05-02T16:21:04.232Z,22.75
2018-05-02T16:23:32.093Z,22.75
2018-05-02T16:25:59.637Z,22.73
2018-05-02T16:28:27.180Z,22.63
2018-05-02T16:30:54.915Z,22.64
2018-05-02T16:33:22.511Z,22.62
2018-05-02T16:35:50.041Z,22.66
2018-05-02T16:38:17.838Z,22.61
2018-05-02T16:40:45.338Z,22.55
2018-05-02T16:43:12.865Z,22.53
2018-05-02T16:45:40.723Z,22.52
2018-05-02T16:48:08.260Z,22.47
2018-05-02T16:50:35.806Z,22.42
2018-05-02T16:53:03.404Z,22.40
2018-05-02T16:55:30.969Z,22.27
2018-05-02T16:57:58.524Z,22.20
2018-05-02T17:00:26.391Z,21.98
2018-05-02T17:02:53.945Z,21.82
2018-05-02T17:05:21.497Z,21.64
2018-05-02T17:07:49.041Z,21.62
2018-05-02T17:10:16.600Z,21.56
2018-05-02T17:12:44.330Z,21.38
2018-05-02T17:15:11.899Z,21.31
2018-05-02T17:17:39.444Z,21.19
2018-05-02T17:20:07.054Z,21.03
2018-05-02T17:22:34.624Z,20.93
2018-05-02T17:25:02.180Z,20.81
2018-05-02T17:27:29.912Z,20.71
2018-05-02T17:29:57.455Z,20.68
2018-05-02T17:32:25.004Z,20.58
2018-05-02T17:34:52.700Z,20.46
2018-05-02T17:37:20.250Z,20.24
2018-05-02T17:39:47.816Z,20.05
2018-05-02T17:42:15.769Z,19.85
2018-05-02T17:44:43.307Z,19.67
2018-05-02T17:47:10.859Z,19.58
2018-05-02T17:49:38.601Z,19.51
2018-05-02T17:52:06.249Z,19.43
2018-05-02T17:54:33.819Z,19.39
2018-05-02T17:57:01.411Z,19.33
2018-05-02T17:59:28.967Z,19.25
2018-05-02T18:01:56.541Z,19.18
2018-05-02T18:04:24.129Z,19.10
2018-05-02T18:06:51.726Z,19.13
2018-05-02T18:09:19.283Z,19.05
2018-05-02T18:11:47.005Z,19.03
2018-05-02T18:14:14.583Z,18.87
2018-05-02T18:16:42.173Z,18.79
2018-05-02T18:19:09.921Z,18.64
2018-05-02T18:21:37.561Z,18.62
2018-05-02T18:24:05.093Z,18.56
2018-05-02T18:26:32.777Z,18.59
2018-05-02T18:29:00.353Z,18.60
2018-05-02T18:31:27.925Z,18.59
2018-05-02T18:33:55.955Z,18.58
2018-05-02T18:36:23.568Z,18.58
2018-05-02T18:38:51.106Z,18.52
2018-05-02T18:41:18.712Z,18.45
2018-05-02T18:43:46.278Z,18.35
2018-05-02T18:46:13.872Z,18.31
2018-05-02T18:48:41.791Z,18.28
2018-05-02T18:51:09.412Z,18.21
2018-05-02T18:53:36.994Z,18.18
2018-05-02T18:56:04.753Z,18.17
2018-05-02T18:58:32.323Z,18.08
2018-05-02T19:00:59.890Z,18.14
2018-05-02T19:03:27.500Z,18.11
2018-05-02T19:05:55.070Z,18.09
2018-05-02T19:08:22.680Z,18.00
2018-05-02T19:10:50.263Z,18.00
2018-05-02T19:13:17.836Z,18.05
2018-05-02T19:15:45.417Z,18.03
2018-05-02T19:18:18.506Z,18.05
2018-05-02T19:20:46.095Z,18.05
2018-05-02T19:23:13.644Z,17.98
2018-05-02T19:25:46.707Z,18.04
2018-05-02T19:28:14.354Z,18.10
2018-05-02T19:30:42.036Z,18.08
2018-05-02T19:33:15.095Z,18.06
2018-05-02T19:35:42.726Z,18.02
2018-05-02T19:38:11.309Z,17.99
2018-05-02T19:40:44.499Z,17.97
2018-05-02T19:43:17.681Z,17.93
2018-05-02T19:45:45.390Z,17.85
2018-05-02T19:48:13.569Z,17.84
2018-05-02T19:50:41.268Z,17.77
2018-05-02T19:53:08.906Z,17.65
2018-05-02T19:55:36.475Z,17.59
2018-05-02T19:58:04.050Z,17.52
2018-05-02T20:00:37.062Z,17.48
2018-05-02T20:03:04.644Z,17.37
2018-05-02T20:05:32.198Z,17.37
2018-05-02T20:07:59.757Z,17.25
2018-05-02T20:10:32.714Z,17.28
2018-05-02T20:13:05.883Z,17.43
2018-05-02T20:15:33.440Z,17.60
2018-05-02T20:18:01.009Z,17.71
2018-05-02T20:20:28.589Z,17.86
2018-05-02T20:22:56.131Z,18.02
2018-05-02T20:25:23.720Z,18.14
2018-05-02T20:27:51.283Z,18.23
2018-05-02T20:30:18.831Z,18.30
2018-05-02T20:32:46.384Z,18.32
2018-05-02T20:35:13.951Z,18.42
2018-05-02T20:37:41.505Z,18.46
2018-05-02T20:40:09.050Z,18.43
2018-05-02T20:42:36.968Z,18.39
2018-05-02T20:45:04.538Z,18.31
2018-05-02T20:47:32.111Z,18.29
2018-05-02T20:49:59.693Z,18.28
2018-05-02T20:52:27.227Z,18.19
2018-05-02T20:54:54.896Z,18.11
2018-05-02T20:57:22.433Z,17.99
2018-05-02T20:59:50.004Z,17.80
2018-05-02T21:02:17.559Z,17.77
2018-05-02T21:04:45.168Z,17.67
2018-05-02T21:07:12.718Z,17.68
2018-05-02T21:09:40.264Z,17.64
2018-05-02T21:12:07.998Z,17.57
2018-05-02T21:14:35.629Z,17.52
2018-05-02T21:17:03.153Z,17.55
2018-05-02T21:19:30.731Z,17.43
2018-05-02T21:21:58.263Z,17.31
2018-05-02T21:24:25.815Z,17.27
2018-05-02T21:26:53.559Z,17.16
2018-05-02T21:29:21.114Z,17.11
2018-05-02T21:31:48.654Z,16.98
2018-05-02T21:34:16.332Z,16.94
2018-05-02T21:36:43.867Z,16.89
2018-05-02T21:39:11.434Z,16.85
2018-05-02T21:41:39.141Z,16.80
2018-05-02T21:44:06.680Z,16.84
2018-05-02T21:46:34.215Z,16.80
2018-05-02T21:49:02.082Z,16.70
2018-05-02T21:51:29.630Z,16.71
2018-05-02T21:53:57.207Z,16.65
2018-05-02T21:56:24.937Z,16.55
2018-05-02T21:58:52.486Z,16.49
2018-05-02T22:01:20.044Z,16.45
2018-05-02T22:03:47.629Z,16.45
2018-05-02T22:06:15.167Z,16.40
2018-05-02T22:08:42.713Z,16.35
2018-05-02T22:11:10.476Z,16.30
2018-05-02T22:13:38.026Z,16.23
2018-05-02T22:16:05.582Z,16.18
2018-05-02T22:18:33.154Z,16.12
2018-05-02T22:21:00.712Z,16.07
2018-05-02T22:23:28.254Z,16.00
2018-05-02T22:25:55.900Z,15.94
2018-05-02T22:28:23.439Z,15.89
2018-05-02T22:30:50.989Z,15.86
2018-05-02T22:33:18.562Z,15.81
2018-05-02T22:35:46.096Z,15.76
2018-05-02T22:38:13.640Z,15.69
2018-05-02T22:40:41.320Z,15.68
2018-05-02T22:43:08.868Z,15.65
2018-05-02T22:45:36.417Z,15.65
2018-05-02T22:48:04.138Z,15.55
2018-05-02T22:50:31.666Z,15.55
2018-05-02T22:52:59.210Z,15.54
2018-05-02T22:55:26.928Z,15.57
2018-05-02T22:57:54.476Z,15.57
2018-05-02T23:00:22.028Z,15.57
2018-05-02T23:02:49.608Z,15.59
2018-05-02T23:05:17.147Z,15.55
2018-05-02T23:07:44.705Z,15.55
2018-05-02T23:10:12.618Z,15.57
2018-05-02T23:12:40.163Z,15.47
2018-05-02T23:15:07.707Z,15.45
2018-05-02T23:17:35.604Z,15.43
2018-05-02T23:20:03.142Z,15.38
2018-05-02T23:36:15.348Z,14.50
2018-05-02T23:38:42.904Z,14.47
2018-05-02T23:41:10.447Z,14.45
2018-05-02T23:43:38.122Z,14.43
2018-05-02T23:46:05.667Z,14.33
2018-05-02T23:48:33.204Z,14.36
2018-05-02T23:51:00.779Z,14.37
2018-05-02T23:53:28.320Z,14.34
2018-05-02T23:55:55.877Z,14.31
2018-05-02T23:58:23.611Z,14.28
